createdAt,value
2023-08-26T00:01:58.457Z,78.93
2023-08-26T00:04:31.144Z,78.92
2023-08-26T00:07:04.234Z,79.79
2023-08-26T00:09:36.769Z,80.10
2023-08-26T00:12:10.064Z,80.67
2023-08-26T00:14:42.605Z,80.06
2023-08-26T00:17:15.095Z,79.95
2023-08-26T00:19:47.761Z,79.59
2023-08-26T00:22:20.242Z,79.90
2023-08-26T00:24:52.816Z,79.59
2023-08-26T00:27:25.295Z,80.15
2023-08-26T00:29:57.652Z,80.55
2023-08-26T00:32:32.189Z,80.21
2023-08-26T00:35:05.376Z,80.13
2023-08-26T00:37:38.466Z,80.59
2023-08-26T00:40:13.213Z,81.12
2023-08-26T00:42:45.630Z,81.03
2023-08-26T00:45:18.282Z,83.09
2023-08-26T00:47:50.599Z,81.06
2023-08-26T00:50:23.142Z,82.02
2023-08-26T00:52:55.658Z,82.45
2023-08-26T00:55:28.191Z,81.60
2023-08-26T00:58:00.537Z,82.05
2023-08-26T01:00:33.599Z,81.52
2023-08-26T01:03:06.145Z,82.72
2023-08-26T01:05:39.372Z,82.80
2023-08-26T01:08:12.370Z,82.92
2023-08-26T01:10:54.396Z,83.97
2023-08-26T01:13:32.296Z,82.83
2023-08-26T01:16:05.947Z,83.94
2023-08-26T01:18:39.327Z,83.92
2023-08-26T01:21:14.306Z,83.20
2023-08-26T01:23:49.427Z,84.76
2023-08-26T01:26:22.229Z,84.22
2023-08-26T01:28:54.537Z,83.35
2023-08-26T01:31:28.403Z,83.14
2023-08-26T01:34:08.794Z,83.88
2023-08-26T01:36:45.299Z,83.69
2023-08-26T01:39:19.683Z,84.24
2023-08-26T01:41:53.211Z,85.35
2023-08-26T01:44:26.946Z,83.93
2023-08-26T01:46:59.359Z,85.19
2023-08-26T01:49:31.670Z,84.15
2023-08-26T01:52:04.547Z,86.01
2023-08-26T01:54:36.773Z,85.22
2023-08-26T01:57:09.862Z,84.40
2023-08-26T01:59:42.055Z,84.61
2023-08-26T02:02:14.548Z,85.51
2023-08-26T02:04:46.897Z,85.75
2023-08-26T02:07:19.993Z,85.20
2023-08-26T02:09:52.434Z,86.09
2023-08-26T02:12:24.819Z,85.02
2023-08-26T02:14:57.224Z,85.63
2023-08-26T02:17:29.811Z,84.27
2023-08-26T02:20:02.441Z,84.14
2023-08-26T02:22:34.820Z,83.90
2023-08-26T02:25:09.289Z,84.00
2023-08-26T02:27:42.113Z,85.47
2023-08-26T02:30:16.487Z,86.07
2023-08-26T02:32:48.901Z,85.18
2023-08-26T02:35:21.327Z,85.03
2023-08-26T02:37:54.327Z,84.65
2023-08-26T02:40:26.877Z,85.03
2023-08-26T02:42:59.253Z,84.66
2023-08-26T02:45:31.548Z,84.53
2023-08-26T02:48:04.023Z,85.65
2023-08-26T02:50:39.042Z,85.63
2023-08-26T02:53:11.369Z,84.80
2023-08-26T02:55:43.681Z,85.20
2023-08-26T02:58:16.843Z,85.17
2023-08-26T03:00:49.126Z,84.89
2023-08-26T03:03:22.479Z,85.21
2023-08-26T03:05:59.636Z,84.76
2023-08-26T03:08:31.894Z,84.56
2023-08-26T03:11:06.195Z,84.59
2023-08-26T03:13:38.389Z,83.96
2023-08-26T03:16:13.049Z,83.59
2023-08-26T03:18:45.370Z,83.44
2023-08-26T03:21:17.621Z,83.05
2023-08-26T03:23:50.933Z,82.85
2023-08-26T03:26:23.402Z,83.02
2023-08-26T03:28:55.983Z,84.10
2023-08-26T03:31:28.434Z,84.37
2023-08-26T03:34:03.224Z,84.29
2023-08-26T03:36:35.514Z,84.42
2023-08-26T03:39:09.675Z,84.17
2023-08-26T03:41:42.628Z,84.13
2023-08-26T03:44:14.873Z,84.30
2023-08-26T03:46:47.182Z,84.77
2023-08-26T03:49:19.334Z,85.53
2023-08-26T03:51:53.285Z,84.82
2023-08-26T03:54:25.760Z,84.59
2023-08-26T03:56:58.015Z,84.67
2023-08-26T03:59:30.212Z,85.01
2023-08-26T04:02:04.216Z,85.48
2023-08-26T04:04:36.438Z,85.91
2023-08-26T04:07:09.511Z,86.16
2023-08-26T04:09:41.898Z,87.47
2023-08-26T04:12:14.424Z,89.34
2023-08-26T04:14:46.745Z,87.99
2023-08-26T04:17:19.100Z,87.07
2023-08-26T04:19:51.355Z,88.31
2023-08-26T04:22:23.578Z,90.22
2023-08-26T04:24:57.027Z,89.60
2023-08-26T04:27:29.796Z,88.17
2023-08-26T04:30:02.035Z,87.38
2023-08-26T04:32:35.775Z,87.33
2023-08-26T04:35:08.461Z,88.00
2023-08-26T04:37:40.912Z,87.53
2023-08-26T04:40:14.460Z,87.24
2023-08-26T04:42:46.963Z,86.93
2023-08-26T04:45:19.728Z,86.14
2023-08-26T04:47:52.470Z,85.84
2023-08-26T04:50:24.859Z,85.72
2023-08-26T04:52:57.217Z,85.48
2023-08-26T04:55:34.102Z,85.28
2023-08-26T04:58:10.980Z,86.55
2023-08-26T05:00:46.817Z,87.14
2023-08-26T05:03:19.224Z,88.03
2023-08-26T05:05:51.599Z,86.63
2023-08-26T05:08:23.962Z,86.83
2023-08-26T05:10:56.111Z,86.39
2023-08-26T05:13:28.484Z,86.25
2023-08-26T05:16:00.723Z,86.13
2023-08-26T05:18:33.503Z,85.67
2023-08-26T05:21:05.927Z,85.11
2023-08-26T05:23:38.196Z,85.15
2023-08-26T05:26:10.873Z,85.60
2023-08-26T05:28:43.243Z,85.16
2023-08-26T05:31:15.686Z,85.07
2023-08-26T05:33:48.251Z,85.25
2023-08-26T05:36:21.848Z,84.70
2023-08-26T05:38:54.523Z,84.33
2023-08-26T05:41:27.215Z,84.01
2023-08-26T05:43:59.741Z,84.18
2023-08-26T05:46:32.293Z,83.80
2023-08-26T05:49:04.884Z,83.06
2023-08-26T05:51:37.203Z,83.05
2023-08-26T05:54:09.680Z,83.15
2023-08-26T05:56:41.950Z,83.32
2023-08-26T05:59:14.119Z,83.42
2023-08-26T06:01:46.597Z,83.33
2023-08-26T06:04:19.137Z,83.14
2023-08-26T06:06:51.502Z,82.89
2023-08-26T06:09:24.203Z,82.50
2023-08-26T06:11:56.665Z,82.25
2023-08-26T06:14:29.065Z,81.65
2023-08-26T06:17:01.612Z,81.63
2023-08-26T06:19:34.620Z,80.99
2023-08-26T06:22:07.740Z,80.90
2023-08-26T06:24:41.416Z,80.43
2023-08-26T06:27:13.677Z,79.87
2023-08-26T06:29:56.534Z,79.77
2023-08-26T06:32:28.902Z,79.44
2023-08-26T06:35:01.483Z,78.67
2023-08-26T06:37:33.822Z,77.65
2023-08-26T06:40:07.119Z,77.43
2023-08-26T06:42:39.497Z,76.81
2023-08-26T06:45:16.405Z,76.74
2023-08-26T06:47:50.684Z,76.08
2023-08-26T06:50:24.320Z,75.68
2023-08-26T06:52:56.999Z,75.20
2023-08-26T06:55:29.997Z,74.35
2023-08-26T06:58:02.151Z,73.56
2023-08-26T07:00:34.428Z,72.51
2023-08-26T07:03:07.120Z,71.89
2023-08-26T07:05:39.729Z,71.45
2023-08-26T07:08:12.236Z,71.07
2023-08-26T07:10:46.176Z,70.49
2023-08-26T07:13:18.746Z,70.55
2023-08-26T07:15:50.960Z,70.09
2023-08-26T07:18:23.403Z,69.27
2023-08-26T07:20:55.839Z,69.01
2023-08-26T07:23:28.458Z,68.26
2023-08-26T07:26:00.767Z,66.24
2023-08-26T07:28:33.716Z,65.55
2023-08-26T07:31:09.804Z,65.10
2023-08-26T07:33:42.310Z,63.83
2023-08-26T07:36:14.631Z,64.82
2023-08-26T07:38:46.880Z,65.38
2023-08-26T07:41:20.196Z,65.02
2023-08-26T07:43:52.431Z,61.93
2023-08-26T07:49:00.193Z,61.59
2023-08-26T07:51:32.556Z,62.14
2023-08-26T07:54:04.924Z,61.53
2023-08-26T07:56:37.295Z,60.25
2023-08-26T07:59:09.833Z,60.79
2023-08-26T08:01:42.578Z,60.71
2023-08-26T08:04:15.242Z,59.22
2023-08-26T08:06:47.522Z,58.61
2023-08-26T08:09:19.833Z,59.08
2023-08-26T08:11:52.309Z,59.48
2023-08-26T08:14:24.682Z,58.75
2023-08-26T08:16:57.008Z,60.00
2023-08-26T08:19:29.950Z,58.54
2023-08-26T08:22:02.500Z,59.05
2023-08-26T08:24:34.889Z,59.77
2023-08-26T08:27:07.876Z,58.82
2023-08-26T08:29:40.165Z,58.08
2023-08-26T08:32:12.482Z,58.44
2023-08-26T08:34:44.803Z,58.72
2023-08-26T08:37:17.109Z,59.05
2023-08-26T08:39:49.564Z,58.89
2023-08-26T08:42:24.119Z,58.98
2023-08-26T08:44:59.202Z,57.92
2023-08-26T08:47:31.500Z,57.58
2023-08-26T08:50:04.457Z,58.21
2023-08-26T08:52:38.370Z,56.66
2023-08-26T08:55:11.774Z,56.89
2023-08-26T08:57:45.509Z,55.72
2023-08-26T09:00:19.540Z,56.23
2023-08-26T09:02:54.202Z,57.31
2023-08-26T09:05:26.925Z,56.76
2023-08-26T09:08:00.273Z,56.14
2023-08-26T09:10:33.646Z,56.20
2023-08-26T09:13:06.558Z,54.27
2023-08-26T09:15:39.980Z,53.26
2023-08-26T09:18:15.298Z,54.11
2023-08-26T09:20:49.621Z,53.49
2023-08-26T09:23:21.976Z,51.82
2023-08-26T09:25:59.632Z,51.33
2023-08-26T09:28:32.025Z,51.16
2023-08-26T09:31:09.159Z,50.43
2023-08-26T09:33:41.750Z,50.09
2023-08-26T09:38:51.693Z,49.51
2023-08-26T09:41:24.709Z,49.08
2023-08-26T09:43:59.210Z,48.84
2023-08-26T09:46:36.841Z,48.65
2023-08-26T09:49:09.265Z,48.88
2023-08-26T09:51:47.523Z,49.15
2023-08-26T09:54:22.956Z,48.44
2023-08-26T09:56:55.537Z,48.79
2023-08-26T09:59:28.357Z,47.78
2023-08-26T10:02:05.565Z,47.05
2023-08-26T10:04:40.475Z,46.77
2023-08-26T10:07:12.805Z,46.78
2023-08-26T10:09:52.195Z,45.94
2023-08-26T10:12:33.152Z,44.70
2023-08-26T10:15:08.485Z,44.13
2023-08-26T10:17:43.378Z,44.22
2023-08-26T10:20:16.814Z,43.99
2023-08-26T10:22:49.835Z,45.07
2023-08-26T10:25:23.228Z,44.77
2023-08-26T10:27:56.102Z,44.67
2023-08-26T10:30:29.510Z,44.32
2023-08-26T10:33:06.407Z,44.87
2023-08-26T10:35:43.022Z,45.33
2023-08-26T10:38:16.922Z,45.35
2023-08-26T10:40:49.525Z,46.26
2023-08-26T10:43:22.295Z,46.22
2023-08-26T10:45:56.257Z,47.07
2023-08-26T10:48:29.832Z,47.65
2023-08-26T10:51:05.556Z,48.13
2023-08-26T10:53:46.759Z,48.38
2023-08-26T10:56:22.817Z,48.46
2023-08-26T10:58:55.205Z,48.60
2023-08-26T11:01:28.369Z,48.76
2023-08-26T11:04:01.477Z,49.10
2023-08-26T11:06:39.721Z,49.64
2023-08-26T11:09:14.044Z,49.89
2023-08-26T11:11:47.643Z,50.83
2023-08-26T11:14:19.994Z,50.77
2023-08-26T11:16:54.182Z,51.15
2023-08-26T11:19:27.960Z,51.33
2023-08-26T11:22:03.244Z,51.77
2023-08-26T11:24:36.731Z,52.09
2023-08-26T11:27:12.118Z,52.51
2023-08-26T11:29:45.029Z,52.53
2023-08-26T11:32:17.387Z,52.96
2023-08-26T11:34:50.009Z,53.39
2023-08-26T11:37:25.762Z,53.11
2023-08-26T11:40:02.781Z,53.54
2023-08-26T11:42:35.275Z,53.90
2023-08-26T11:45:12.356Z,53.79
2023-08-26T11:47:45.313Z,54.54
2023-08-26T11:50:20.070Z,55.35
2023-08-26T11:52:52.397Z,55.86
2023-08-26T11:55:29.548Z,56.12
2023-08-26T11:58:03.920Z,56.85
2023-08-26T12:00:39.242Z,56.83
2023-08-26T12:03:11.585Z,56.90
2023-08-26T12:05:50.000Z,56.60
2023-08-26T12:08:24.502Z,56.74
2023-08-26T12:10:59.936Z,57.26
2023-08-26T12:13:42.343Z,57.87
2023-08-26T12:16:16.119Z,57.84
2023-08-26T12:18:50.280Z,57.45
2023-08-26T12:21:22.857Z,57.19
2023-08-26T12:23:55.325Z,56.88
2023-08-26T12:26:27.755Z,55.97
2023-08-26T12:29:00.404Z,55.20
2023-08-26T12:31:36.302Z,54.90
2023-08-26T12:34:08.623Z,55.62
2023-08-26T12:36:40.979Z,54.52
2023-08-26T12:39:13.421Z,54.48
2023-08-26T12:41:46.745Z,54.99
2023-08-26T12:44:20.332Z,55.48
2023-08-26T12:46:53.759Z,54.44
2023-08-26T12:49:27.876Z,53.79
2023-08-26T12:52:00.848Z,53.85
2023-08-26T12:54:33.337Z,54.08
2023-08-26T12:57:05.977Z,53.88
2023-08-26T12:59:38.360Z,53.82
2023-08-26T13:02:11.653Z,51.33
2023-08-26T13:04:44.564Z,50.21
2023-08-26T13:07:18.376Z,49.23
2023-08-26T13:09:50.810Z,48.86
2023-08-26T13:12:23.048Z,47.71
2023-08-26T13:14:55.161Z,46.85
2023-08-26T13:17:28.038Z,47.04
2023-08-26T13:20:00.872Z,45.12
2023-08-26T13:22:33.131Z,46.23
2023-08-26T13:25:05.707Z,45.00
2023-08-26T13:27:38.025Z,45.25
2023-08-26T13:30:11.983Z,45.11
2023-08-26T13:32:44.689Z,44.79
2023-08-26T13:35:17.520Z,44.26
2023-08-26T13:37:50.240Z,43.35
2023-08-26T13:40:22.966Z,42.64
2023-08-26T13:42:57.136Z,42.98
2023-08-26T13:45:29.933Z,42.64
2023-08-26T13:48:02.562Z,42.33
2023-08-26T13:50:35.194Z,39.55
2023-08-26T13:53:07.956Z,39.15
2023-08-26T13:55:40.420Z,38.92
2023-08-26T13:58:12.594Z,39.02
2023-08-26T14:00:45.200Z,38.01
2023-08-26T14:03:17.796Z,38.46
2023-08-26T14:05:52.161Z,37.43
2023-08-26T14:08:24.456Z,36.33
2023-08-26T14:10:57.293Z,36.82
2023-08-26T14:13:29.744Z,36.62
2023-08-26T14:16:02.273Z,34.88
2023-08-26T14:18:34.842Z,33.90
2023-08-26T14:21:07.428Z,33.58
2023-08-26T14:23:39.677Z,33.08
2023-08-26T14:26:11.960Z,33.44
2023-08-26T14:28:44.128Z,34.43
2023-08-26T14:31:16.565Z,34.11
2023-08-26T14:33:49.639Z,33.67
2023-08-26T14:36:22.367Z,33.12
2023-08-26T14:38:55.343Z,32.85
2023-08-26T14:41:27.571Z,33.26
2023-08-26T14:43:59.946Z,34.23
2023-08-26T14:46:33.095Z,33.91
2023-08-26T14:49:05.568Z,33.34
2023-08-26T14:51:38.813Z,32.16
2023-08-26T14:54:11.219Z,31.73
2023-08-26T14:56:44.058Z,32.39
2023-08-26T14:59:16.532Z,33.30
2023-08-26T15:01:48.970Z,34.03
2023-08-26T15:04:21.532Z,34.03
2023-08-26T15:06:54.081Z,33.39
2023-08-26T15:09:26.597Z,33.80
2023-08-26T15:11:58.920Z,33.61
2023-08-26T15:14:31.339Z,33.44
2023-08-26T15:17:04.580Z,33.25
2023-08-26T15:19:36.961Z,33.63
2023-08-26T15:22:09.934Z,33.34
2023-08-26T15:24:42.307Z,33.31
2023-08-26T15:27:15.190Z,33.39
2023-08-26T15:29:47.764Z,33.41
2023-08-26T15:32:20.132Z,32.45
2023-08-26T15:34:52.491Z,32.18
2023-08-26T15:37:25.703Z,31.73
2023-08-26T15:39:58.147Z,31.38
2023-08-26T15:42:30.465Z,31.74
2023-08-26T15:45:02.724Z,33.39
2023-08-26T15:47:35.489Z,35.33
2023-08-26T15:50:09.024Z,37.28
2023-08-26T15:52:41.320Z,38.83
2023-08-26T15:55:13.504Z,40.39
2023-08-26T15:57:46.600Z,41.72
2023-08-26T16:00:19.427Z,42.81
2023-08-26T16:02:51.667Z,44.36
2023-08-26T16:05:23.974Z,45.29
2023-08-26T16:07:56.431Z,46.10
2023-08-26T16:10:28.782Z,46.78
2023-08-26T16:13:01.202Z,46.85
2023-08-26T16:15:34.613Z,47.06
2023-08-26T16:18:07.544Z,48.16
2023-08-26T16:20:39.945Z,49.42
2023-08-26T16:23:12.302Z,50.38
2023-08-26T16:25:44.665Z,50.11
2023-08-26T16:28:17.172Z,50.12
2023-08-26T16:30:49.440Z,50.58
2023-08-26T16:33:24.205Z,51.04
2023-08-26T16:35:58.448Z,51.85
2023-08-26T16:38:31.956Z,53.93
2023-08-26T16:41:04.303Z,54.92
2023-08-26T16:43:36.595Z,55.23
2023-08-26T16:46:09.897Z,55.08
2023-08-26T16:48:44.270Z,55.83
2023-08-26T16:51:16.721Z,56.70
2023-08-26T16:53:49.301Z,56.47
2023-08-26T16:56:21.533Z,57.15
2023-08-26T16:58:53.841Z,56.81
2023-08-26T17:01:26.533Z,57.16
2023-08-26T17:03:58.944Z,57.03
2023-08-26T17:06:31.249Z,56.92
2023-08-26T17:09:03.610Z,57.63
2023-08-26T17:11:36.017Z,57.69
2023-08-26T17:14:08.490Z,58.08
2023-08-26T17:16:40.683Z,57.56
2023-08-26T17:19:12.991Z,58.48
2023-08-26T17:21:46.019Z,60.34
2023-08-26T17:24:18.301Z,59.64
2023-08-26T17:26:50.740Z,60.27
2023-08-26T17:29:23.366Z,59.67
2023-08-26T17:31:55.706Z,60.17
2023-08-26T17:34:28.142Z,60.07
2023-08-26T17:37:00.551Z,60.33
2023-08-26T17:39:33.052Z,61.74
2023-08-26T17:42:06.121Z,61.65
2023-08-26T17:44:39.085Z,62.25
2023-08-26T17:47:11.404Z,62.80
2023-08-26T17:49:43.796Z,62.34
2023-08-26T17:52:16.120Z,62.61
2023-08-26T17:54:48.385Z,63.09
2023-08-26T17:57:20.727Z,63.92
2023-08-26T17:59:53.108Z,63.64
2023-08-26T18:02:25.696Z,63.67
2023-08-26T18:04:58.283Z,64.72
2023-08-26T18:07:30.631Z,65.26
2023-08-26T18:10:03.056Z,65.44
2023-08-26T18:12:35.294Z,65.91
2023-08-26T18:15:08.524Z,65.90
2023-08-26T18:17:41.067Z,66.53
2023-08-26T18:20:14.669Z,66.27
2023-08-26T18:22:46.956Z,67.14
2023-08-26T18:25:19.418Z,66.98
2023-08-26T18:27:51.652Z,68.69
2023-08-26T18:30:24.738Z,67.93
2023-08-26T18:32:57.874Z,67.55
2023-08-26T18:35:30.459Z,67.68
2023-08-26T18:38:02.727Z,67.97
2023-08-26T18:40:35.398Z,68.02
2023-08-26T18:43:08.090Z,67.99
2023-08-26T18:45:40.758Z,68.10
2023-08-26T18:48:13.047Z,68.03
2023-08-26T18:50:45.412Z,68.60
2023-08-26T18:53:17.787Z,69.81
2023-08-26T18:55:53.902Z,69.24
2023-08-26T18:58:27.696Z,70.13
2023-08-26T19:01:00.469Z,72.69
2023-08-26T19:03:32.805Z,72.10
2023-08-26T19:06:08.862Z,71.90
2023-08-26T19:08:41.495Z,71.01
2023-08-26T19:11:13.713Z,71.86
2023-08-26T19:13:46.053Z,71.64
2023-08-26T19:16:18.323Z,71.74
2023-08-26T19:18:51.083Z,72.05
2023-08-26T19:21:24.051Z,74.50
2023-08-26T19:23:56.700Z,73.06
2023-08-26T19:26:30.152Z,73.90
2023-08-26T19:29:02.830Z,72.78
2023-08-26T19:31:36.000Z,73.61
2023-08-26T19:34:08.804Z,72.68
2023-08-26T19:36:41.342Z,72.52
2023-08-26T19:39:15.276Z,72.07
2023-08-26T19:41:47.735Z,73.13
2023-08-26T19:44:19.911Z,73.30
2023-08-26T19:46:52.297Z,74.35
2023-08-26T19:49:25.056Z,72.89
2023-08-26T19:51:57.454Z,72.49
2023-08-26T19:54:29.969Z,72.70
2023-08-26T19:57:10.594Z,72.90
2023-08-26T19:59:43.062Z,74.50
2023-08-26T20:02:15.642Z,73.94
2023-08-26T20:04:50.648Z,73.86
2023-08-26T20:07:23.058Z,75.70
2023-08-26T20:09:56.689Z,74.46
2023-08-26T20:12:30.410Z,74.51
2023-08-26T20:15:05.368Z,74.72
2023-08-26T20:17:38.583Z,74.60
2023-08-26T20:20:12.733Z,75.37
2023-08-26T20:22:44.941Z,74.79
2023-08-26T20:25:17.329Z,74.50
2023-08-26T20:27:49.606Z,74.14
2023-08-26T20:30:22.679Z,74.52
2023-08-26T20:32:54.972Z,74.88
2023-08-26T20:35:27.230Z,75.77
2023-08-26T20:37:59.969Z,76.70
2023-08-26T20:40:32.168Z,78.08
2023-08-26T20:43:04.553Z,77.46
2023-08-26T20:45:36.918Z,77.12
2023-08-26T20:48:42.923Z,76.70
2023-08-26T20:51:15.907Z,77.35
2023-08-26T20:53:49.531Z,77.78
2023-08-26T20:56:21.801Z,79.18
2023-08-26T20:58:54.202Z,78.70
2023-08-26T21:01:28.286Z,78.49
2023-08-26T21:04:00.970Z,78.66
2023-08-26T21:06:33.283Z,78.46
2023-08-26T21:09:05.786Z,78.40
2023-08-26T21:11:38.245Z,78.78
2023-08-26T21:14:10.513Z,78.38
2023-08-26T21:16:42.899Z,78.85
2023-08-26T21:19:15.113Z,79.52
2023-08-26T21:21:47.498Z,79.43
2023-08-26T21:24:19.599Z,79.34
2023-08-26T21:26:51.880Z,79.16
2023-08-26T21:29:24.211Z,79.93
2023-08-26T21:31:56.509Z,79.75
2023-08-26T21:34:28.837Z,79.80
2023-08-26T21:37:01.160Z,79.85
2023-08-26T21:39:33.419Z,80.88
2023-08-26T21:42:06.200Z,80.77
2023-08-26T21:44:38.481Z,80.61
2023-08-26T21:47:11.004Z,80.63
2023-08-26T21:49:43.736Z,80.44
2023-08-26T21:52:16.688Z,80.79
2023-08-26T21:54:49.212Z,80.38
2023-08-26T21:57:21.433Z,80.33
2023-08-26T21:59:53.652Z,80.37
2023-08-26T22:02:26.128Z,80.61
2023-08-26T22:05:00.212Z,80.24
2023-08-26T22:07:32.539Z,80.73
2023-08-26T22:10:05.081Z,80.74
2023-08-26T22:12:37.460Z,81.20
2023-08-26T22:15:10.759Z,80.73
2023-08-26T22:17:43.070Z,81.02
2023-08-26T22:20:15.761Z,81.27
2023-08-26T22:22:48.668Z,82.91
2023-08-26T22:25:21.213Z,84.70
2023-08-26T22:27:53.748Z,83.77
2023-08-26T22:30:26.176Z,85.23
2023-08-26T22:32:58.644Z,87.30
2023-08-26T22:35:31.235Z,88.11
2023-08-26T22:38:03.461Z,89.18
2023-08-26T22:40:35.612Z,89.57
2023-08-26T22:43:08.020Z,91.09
2023-08-26T22:45:40.220Z,89.68
2023-08-26T22:48:13.983Z,90.97
2023-08-26T22:50:46.197Z,89.67
2023-08-26T22:53:19.450Z,90.05
2023-08-26T22:55:51.642Z,89.66
2023-08-26T22:58:24.191Z,89.33
2023-08-26T23:00:57.621Z,90.33
2023-08-26T23:03:29.937Z,91.60
2023-08-26T23:06:06.901Z,92.99
2023-08-26T23:08:39.055Z,91.75
2023-08-26T23:11:11.284Z,91.44
2023-08-26T23:13:43.409Z,90.63
2023-08-26T23:16:15.746Z,90.86
2023-08-26T23:18:48.096Z,90.66
2023-08-26T23:21:20.402Z,91.46
2023-08-26T23:23:52.527Z,91.30
2023-08-26T23:26:25.255Z,92.46
2023-08-26T23:28:57.411Z,92.41
2023-08-26T23:31:29.624Z,92.27
2023-08-26T23:34:15.954Z,94.06
2023-08-26T23:36:51.017Z,93.62
2023-08-26T23:39:24.567Z,93.05
2023-08-26T23:41:56.840Z,93.04
2023-08-26T23:44:29.233Z,93.46
2023-08-26T23:47:01.405Z,92.83
2023-08-26T23:49:33.728Z,92.66
2023-08-26T23:52:06.366Z,93.11
2023-08-26T23:54:38.529Z,93.06
2023-08-26T23:57:11.008Z,93.09
2023-08-26T23:59:43.886Z,92.95
